Time;durP1;ratioP1;P1;durP2;ratioP2;P2;SDS_P1;SDS_P2;PMS_P1;PMS_P2;Temp;Humidity;BMP_temperature;BMP_pressure;BME280_temperature;BME280_humidity;BME280_pressure;Samples;Min_cycle;Max_cycle;Signal;HPM_P1;HPM_P2
2022/01/07 00:00:16;;;;;;;9.62;5.30;;;;;;;-0.71;93.82;99665.88;2047016;79;20689;-73
2022/01/07 00:03:19;;;;;;;10.80;5.36;;;;;;;-0.67;93.82;99657.56;2050771;78;20199;-73
2022/01/07 00:06:22;;;;;;;8.69;4.44;;;;;;;-0.66;93.82;99651.66;2048516;79;20207;-73
2022/01/07 00:09:25;;;;;;;8.63;4.66;;;;;;;-0.64;93.79;99648.38;2048977;79;20183;-73
2022/01/07 00:12:27;;;;;;;11.46;4.77;;;;;;;-0.64;93.67;99645.81;2048266;79;20270;-72
2022/01/07 00:15:30;;;;;;;12.37;5.08;;;;;;;-0.61;93.73;99643.38;2047185;76;21591;-72
2022/01/07 00:18:33;;;;;;;11.41;4.14;;;;;;;-0.56;93.76;99648.69;2047823;79;20305;-72
2022/01/07 00:21:36;;;;;;;8.71;4.89;;;;;;;-0.61;93.58;99645.94;2048440;79;20183;-72
2022/01/07 00:24:38;;;;;;;8.31;4.24;;;;;;;-0.56;93.81;99647.81;2048385;79;20181;-72
2022/01/07 00:27:42;;;;;;;11.80;4.83;;;;;;;-0.60;93.56;99644.25;2048567;79;20314;-72
2022/01/07 00:30:45;;;;;;;10.70;4.70;;;;;;;-0.58;93.65;99645.19;2047769;76;47971;-72
2022/01/07 00:33:48;;;;;;;8.68;4.63;;;;;;;-0.58;93.50;99641.78;2103878;68;20205;-72
2022/01/07 00:36:50;;;;;;;9.01;4.74;;;;;;;-0.56;93.47;99637.59;2033612;79;20432;-72
2022/01/07 00:39:53;;;;;;;6.31;4.01;;;;;;;-0.55;93.49;99626.59;2034383;79;20258;-72
2022/01/07 00:42:56;;;;;;;9.57;4.37;;;;;;;-0.58;93.40;99621.38;2034049;79;20254;-72
2022/01/07 00:45:58;;;;;;;11.13;4.74;;;;;;;-0.59;93.44;99619.63;2030280;77;21085;-72
2022/01/07 00:49:01;;;;;;;9.44;4.48;;;;;;;-0.59;93.51;99619.63;2028689;79;20199;-72
2022/01/07 00:52:04;;;;;;;11.41;4.85;;;;;;;-0.59;93.54;99620.50;2030598;79;20216;-72
2022/01/07 00:55:08;;;;;;;10.66;4.94;;;;;;;-0.61;93.50;99617.88;2028605;79;20322;-72
2022/01/07 00:58:11;;;;;;;11.29;4.59;;;;;;;-0.61;93.50;99611.91;2031328;79;20186;-72
2022/01/07 01:01:13;;;;;;;8.99;4.54;;;;;;;-0.59;93.56;99606.88;2026832;77;21423;-72
2022/01/07 01:04:18;;;;;;;9.88;4.73;;;;;;;-0.56;93.75;99595.13;2029101;79;20894;-72
2022/01/07 01:07:21;;;;;;;8.72;4.13;;;;;;;-0.52;93.76;99591.94;2028930;79;20750;-72
2022/01/07 01:10:27;;;;;;;8.21;4.20;;;;;;;-0.51;93.68;99595.34;2028345;79;20225;-72
2022/01/07 01:13:31;;;;;;;9.37;4.21;;;;;;;-0.51;93.67;99592.81;2028130;79;20629;-72
2022/01/07 01:16:36;;;;;;;10.38;4.29;;;;;;;-0.53;93.76;99587.63;2027106;77;22197;-72
2022/01/07 01:19:38;;;;;;;8.98;4.70;;;;;;;-0.57;93.53;99600.16;2028575;79;20346;-72
2022/01/07 01:22:42;;;;;;;9.20;4.41;;;;;;;-0.62;93.79;99590.66;2029293;79;20182;-72
2022/01/07 01:25:44;;;;;;;8.78;3.96;;;;;;;-0.58;93.83;99600.97;2028453;79;20195;-72
2022/01/07 01:28:47;;;;;;;10.57;4.44;;;;;;;-0.57;93.76;99587.41;2028591;79;20190;-73
2022/01/07 01:31:50;;;;;;;7.74;4.23;;;;;;;-0.54;93.94;99585.00;2027164;77;20346;-72
2022/01/07 01:34:52;;;;;;;9.96;4.61;;;;;;;-0.51;93.95;99586.03;2028071;79;20966;-72
2022/01/07 01:37:55;;;;;;;10.97;4.92;;;;;;;-0.50;93.92;99587.75;2028355;79;20428;-72
2022/01/07 01:40:57;;;;;;;12.27;4.63;;;;;;;-0.47;93.91;99580.25;2028303;79;20255;-72
2022/01/07 01:44:00;;;;;;;13.00;5.18;;;;;;;-0.48;93.86;99581.03;2028018;79;20329;-72
2022/01/07 01:47:03;;;;;;;11.76;5.54;;;;;;;-0.46;93.95;99571.78;2026318;77;20989;-72
2022/01/07 01:50:07;;;;;;;8.31;4.42;;;;;;;-0.46;93.99;99569.22;2028582;79;20211;-72
2022/01/07 01:53:10;;;;;;;10.38;4.83;;;;;;;-0.44;94.04;99569.28;2028465;79;20300;-72
2022/01/07 01:56:13;;;;;;;7.22;4.50;;;;;;;-0.43;93.96;99568.47;2028235;79;20751;-72
2022/01/07 01:59:24;;;;;;;11.20;4.31;;;;;;;-0.44;93.75;99575.25;2027766;80;20710;-72
2022/01/07 02:02:27;;;;;;;11.65;5.16;;;;;;;-0.45;93.69;99565.88;2027028;77;24633;-72
2022/01/07 02:05:29;;;;;;;11.07;4.71;;;;;;;-0.41;93.73;99564.31;2028750;79;20342;-72
2022/01/07 02:08:36;;;;;;;9.91;4.09;;;;;;;-0.42;93.54;99567.66;2028053;79;20844;-72
2022/01/07 02:11:39;;;;;;;8.64;4.52;;;;;;;-0.42;93.51;99555.78;2027884;79;20250;-72
2022/01/07 02:14:53;;;;;;;11.10;4.67;;;;;;;-0.42;93.35;99565.13;2028212;80;20174;-72
2022/01/07 02:17:57;;;;;;;9.46;4.88;;;;;;;-0.42;93.29;99554.91;2029213;77;21188;-72
2022/01/07 02:21:00;;;;;;;8.52;4.30;;;;;;;-0.40;93.36;99559.28;2027702;80;20194;-72
2022/01/07 02:24:03;;;;;;;9.22;4.36;;;;;;;-0.39;93.31;99555.03;2030895;79;20198;-72
2022/01/07 02:27:07;;;;;;;9.73;4.08;;;;;;;-0.37;93.40;99546.63;2028656;79;20367;-72
2022/01/07 02:30:14;;;;;;;11.61;4.40;;;;;;;-0.32;93.37;99539.19;2027542;79;20312;-72
2022/01/07 02:33:18;;;;;;;6.70;4.26;;;;;;;-0.27;93.34;99545.34;2034939;79;20255;-72
2022/01/07 02:36:21;;;;;;;7.41;4.54;;;;;;;-0.22;93.24;99540.44;2032759;79;20170;-73
2022/01/07 02:39:23;;;;;;;8.59;4.14;;;;;;;-0.20;93.20;99536.25;2033861;79;20194;-72
2022/01/07 02:42:26;;;;;;;11.20;5.03;;;;;;;-0.18;93.05;99526.97;2033629;79;20356;-72
2022/01/07 02:45:29;;;;;;;11.08;4.60;;;;;;;-0.18;93.05;99520.22;2030727;77;23617;-72
2022/01/07 02:48:31;;;;;;;12.89;4.89;;;;;;;-0.16;92.92;99518.59;2028398;79;20274;-72
2022/01/07 02:51:34;;;;;;;9.83;4.33;;;;;;;-0.16;92.83;99516.03;2028601;79;20186;-72
2022/01/07 02:54:37;;;;;;;10.51;4.50;;;;;;;-0.15;92.77;99510.13;2028769;79;20202;-72
2022/01/07 02:57:39;;;;;;;12.72;4.98;;;;;;;-0.14;92.76;99511.00;2028546;79;20263;-72
2022/01/07 03:00:42;;;;;;;10.16;4.63;;;;;;;-0.14;92.72;99524.63;2028089;77;21380;-72
2022/01/07 03:03:45;;;;;;;9.97;4.61;;;;;;;-0.14;92.74;99524.63;2030392;79;20292;-72
2022/01/07 03:06:47;;;;;;;8.33;4.53;;;;;;;-0.13;92.62;99523.81;2030667;79;20208;-73
2022/01/07 03:09:50;;;;;;;10.24;5.06;;;;;;;-0.13;92.59;99523.81;2029564;79;20298;-72
2022/01/07 03:12:53;;;;;;;7.68;4.18;;;;;;;-0.12;92.48;99523.00;2029614;79;20206;-72
2022/01/07 03:15:56;;;;;;;9.90;4.51;;;;;;;-0.12;92.43;99524.69;2029323;77;23732;-72
2022/01/07 03:18:59;;;;;;;9.81;4.86;;;;;;;-0.12;92.41;99509.38;2030913;79;20190;-72
2022/01/07 03:22:02;;;;;;;8.04;4.62;;;;;;;-0.10;92.50;99507.75;2030673;79;20347;-72
2022/01/07 03:25:06;;;;;;;7.51;3.90;;;;;;;-0.05;92.59;99501.13;2031211;79;20562;-72
2022/01/07 03:28:10;;;;;;;8.48;4.13;;;;;;;-0.05;92.51;99502.00;2029064;79;20196;-72
2022/01/07 03:31:13;;;;;;;9.56;3.74;;;;;;;-0.07;92.41;99501.09;2028800;77;20946;-73
2022/01/07 03:34:15;;;;;;;10.07;3.96;;;;;;;-0.04;92.58;99500.31;2030247;79;20214;-73
2022/01/07 03:37:19;;;;;;;9.01;4.07;;;;;;;0.00;92.55;99499.66;2030502;79;20719;-72
2022/01/07 03:40:22;;;;;;;6.66;3.84;;;;;;;0.03;92.58;99493.81;2029934;79;20210;-73
2022/01/07 03:43:24;;;;;;;9.50;3.99;;;;;;;0.04;92.56;99493.00;2030227;79;20251;-72
2022/01/07 03:46:27;;;;;;;10.10;4.83;;;;;;;0.04;92.52;99487.88;2028161;77;23294;-72
2022/01/07 03:49:30;;;;;;;11.79;4.50;;;;;;;0.08;92.52;99489.75;2030479;79;20191;-72
2022/01/07 03:52:33;;;;;;;6.93;3.81;;;;;;;0.08;92.33;99487.19;2029986;79;20302;-73
2022/01/07 03:55:36;;;;;;;7.62;4.71;;;;;;;0.12;92.44;99487.34;2030510;79;20186;-72
2022/01/07 03:58:38;;;;;;;8.86;4.11;;;;;;;0.13;92.34;99483.13;2030270;79;20210;-72
2022/01/07 04:01:41;;;;;;;9.84;4.41;;;;;;;0.10;92.28;99471.09;2027443;77;22093;-72
2022/01/07 04:04:44;;;;;;;10.01;3.90;;;;;;;0.15;92.48;99473.84;2029378;79;20791;-72
2022/01/07 04:07:47;;;;;;;8.94;3.66;;;;;;;0.15;92.36;99467.03;2032474;79;20217;-72
2022/01/07 04:10:50;;;;;;;8.69;4.24;;;;;;;0.18;92.51;99467.19;2031732;79;20330;-72
2022/01/07 04:13:52;;;;;;;8.23;5.03;;;;;;;0.22;92.49;99463.94;2028509;79;20380;-73
2022/01/07 04:16:55;;;;;;;10.12;3.99;;;;;;;0.23;92.45;99459.69;2033154;76;24476;-73
2022/01/07 04:19:58;;;;;;;6.91;3.80;;;;;;;0.25;92.48;99448.72;2034345;79;20221;-72
2022/01/07 04:23:03;;;;;;;7.76;4.20;;;;;;;0.27;92.43;99446.22;2034064;79;20189;-72
2022/01/07 04:26:06;;;;;;;8.20;4.31;;;;;;;0.28;92.29;99440.28;2034105;79;20329;-72
2022/01/07 04:29:08;;;;;;;9.30;3.69;;;;;;;0.29;92.35;99427.59;2033835;79;20246;-72
2022/01/07 04:32:11;;;;;;;7.69;3.84;;;;;;;0.28;92.22;99428.41;2033418;76;24405;-72
2022/01/07 04:35:16;;;;;;;11.89;4.24;;;;;;;0.29;92.16;99432.69;2033681;79;20368;-72
2022/01/07 04:38:19;;;;;;;7.44;3.96;;;;;;;0.33;92.28;99433.66;2034387;79;20236;-73
2022/01/07 04:41:21;;;;;;;6.42;3.94;;;;;;;0.37;92.30;99438.09;2034628;79;20282;-72
2022/01/07 04:44:24;;;;;;;15.82;4.94;;;;;;;0.40;92.28;99434.78;2034464;79;20186;-73
2022/01/07 04:47:27;;;;;;;8.41;3.79;;;;;;;0.40;92.16;99432.22;2032872;76;22121;-72
2022/01/07 04:50:29;;;;;;;8.36;3.91;;;;;;;0.45;92.21;99430.69;2033718;79;20236;-72
2022/01/07 04:53:33;;;;;;;6.86;4.08;;;;;;;0.46;92.17;99414.56;2034338;79;20182;-72
2022/01/07 04:56:36;;;;;;;9.18;4.10;;;;;;;0.48;92.14;99426.56;2034106;79;20249;-72
2022/01/07 04:59:38;;;;;;;7.40;3.96;;;;;;;0.49;91.98;99424.88;2033954;79;20273;-72
2022/01/07 05:02:42;;;;;;;5.70;3.76;;;;;;;0.51;91.76;99433.47;2032394;79;22071;-72
2022/01/07 05:05:49;;;;;;;6.80;3.70;;;;;;;0.50;91.53;99427.47;2034315;79;20339;-72
2022/01/07 05:08:51;;;;;;;8.13;3.99;;;;;;;0.52;91.53;99425.84;2033982;79;20334;-72
2022/01/07 05:11:54;;;;;;;9.54;3.38;;;;;;;0.54;91.54;99421.69;2033939;79;20189;-73
2022/01/07 05:14:57;;;;;;;8.89;4.10;;;;;;;0.58;91.60;99422.66;2033534;79;20393;-72
2022/01/07 05:17:59;;;;;;;7.71;3.67;;;;;;;0.59;91.49;99409.09;2032338;76;20362;-72
2022/01/07 05:21:02;;;;;;;7.80;4.42;;;;;;;0.62;91.21;99415.97;2034031;79;20233;-72
2022/01/07 05:24:05;;;;;;;7.43;3.77;;;;;;;0.62;91.07;99408.31;2033443;79;20166;-72
2022/01/07 05:27:08;;;;;;;7.02;3.36;;;;;;;0.66;91.08;99421.25;2033596;79;20235;-72
2022/01/07 05:30:14;;;;;;;4.94;3.17;;;;;;;0.70;90.91;99423.06;2032745;79;20181;-72
2022/01/07 05:33:16;;;;;;;5.54;3.17;;;;;;;0.73;90.44;99419.78;2033758;77;21442;-73
2022/01/07 05:36:21;;;;;;;7.20;3.24;;;;;;;0.73;90.25;99409.56;2034676;79;20301;-73
2022/01/07 05:39:24;;;;;;;7.62;2.98;;;;;;;0.75;90.02;99406.25;2033375;79;20326;-73
2022/01/07 05:42:26;;;;;;;8.23;3.48;;;;;;;0.79;89.72;99397.00;2033869;79;20209;-72
2022/01/07 05:45:29;;;;;;;7.21;3.22;;;;;;;0.79;89.44;99400.41;2031975;77;23352;-72
2022/01/07 05:48:32;;;;;;;7.46;3.44;;;;;;;0.81;89.49;99395.34;2033931;79;20253;-72
2022/01/07 05:51:35;;;;;;;7.53;2.90;;;;;;;0.83;89.51;99398.81;2033885;79;20223;-72
2022/01/07 05:54:38;;;;;;;4.16;3.35;;;;;;;0.85;89.42;99397.19;2033794;79;20892;-72
2022/01/07 05:57:40;;;;;;;7.31;3.02;;;;;;;0.84;89.32;99395.44;2033173;79;21168;-72
2022/01/07 06:00:43;;;;;;;5.14;2.63;;;;;;;0.85;89.09;99386.97;2031666;76;20729;-72
2022/01/07 06:03:46;;;;;;;9.05;3.70;;;;;;;0.85;88.97;99398.06;2034051;79;20430;-72
2022/01/07 06:06:48;;;;;;;6.46;2.85;;;;;;;0.89;88.85;99396.47;2032153;79;20330;-72
2022/01/07 06:09:51;;;;;;;4.24;2.59;;;;;;;0.90;88.96;99400.78;2033355;79;20322;-72
2022/01/07 06:12:54;;;;;;;5.21;2.76;;;;;;;0.91;88.70;99392.31;2033281;79;20857;-72
2022/01/07 06:15:56;;;;;;;5.70;2.51;;;;;;;0.93;88.50;99394.91;2030338;77;22749;-72
2022/01/07 06:18:59;;;;;;;6.74;2.49;;;;;;;0.93;88.23;99384.69;2027752;80;20326;-72
2022/01/07 06:22:03;;;;;;;4.10;2.44;;;;;;;0.93;88.14;99387.25;2028435;79;20323;-72
2022/01/07 06:25:06;;;;;;;5.68;2.45;;;;;;;0.92;88.20;99376.16;2028987;79;20347;-72
2022/01/07 06:28:09;;;;;;;4.09;2.74;;;;;;;0.92;88.71;99377.84;2028967;79;20368;-73
2022/01/07 06:31:11;;;;;;;4.86;2.89;;;;;;;0.92;89.01;99381.25;2027121;76;21852;-72
2022/01/07 06:34:14;;;;;;;4.54;2.69;;;;;;;0.87;89.47;99373.41;2028758;79;20862;-72
2022/01/07 06:37:17;;;;;;;7.55;2.26;;;;;;;0.85;89.95;99372.50;2028901;79;20830;-72
2022/01/07 06:40:19;;;;;;;4.54;2.16;;;;;;;0.88;90.24;99369.19;2028745;79;20372;-72
2022/01/07 06:43:22;;;;;;;4.95;2.56;;;;;;;0.85;90.52;99372.50;2029162;79;20394;-72
2022/01/07 06:46:24;;;;;;;4.41;2.61;;;;;;;0.85;90.70;99382.72;2027102;77;20351;-72
2022/01/07 06:49:27;;;;;;;6.16;2.67;;;;;;;0.85;90.93;99371.63;2028151;79;20372;-72
2022/01/07 06:52:30;;;;;;;7.47;2.64;;;;;;;0.85;91.14;99376.75;2028839;79;20167;-72
2022/01/07 06:55:32;;;;;;;7.36;2.74;;;;;;;0.86;91.38;99371.69;2028236;79;20291;-72
2022/01/07 06:58:35;;;;;;;6.61;3.28;;;;;;;0.91;91.68;99361.63;2028950;79;20337;-72
2022/01/07 07:01:46;;;;;;;5.11;2.60;;;;;;;0.91;91.66;99361.63;2027022;77;20339;-70
2022/01/07 07:04:50;;;;;;;6.86;2.56;;;;;;;0.90;91.85;99360.78;2028534;79;20237;-70
2022/01/07 07:07:52;;;;;;;5.07;2.81;;;;;;;0.90;91.92;99370.13;2031308;79;20362;-71
2022/01/07 07:10:55;;;;;;;5.31;2.50;;;;;;;0.88;92.13;99367.50;2028357;79;20182;-72
2022/01/07 07:13:58;;;;;;;6.36;2.68;;;;;;;0.88;92.16;99371.72;2028165;79;20348;-72
2022/01/07 07:17:00;;;;;;;6.93;3.22;;;;;;;0.88;92.32;99369.19;2026214;77;22189;-72
2022/01/07 07:20:04;;;;;;;7.82;2.45;;;;;;;0.85;92.30;99371.63;2031160;79;20232;-71
2022/01/07 07:23:06;;;;;;;8.50;3.45;;;;;;;0.83;92.26;99375.81;2028013;79;20336;-71
2022/01/07 07:26:09;;;;;;;7.51;2.83;;;;;;;0.82;92.57;99361.31;2028406;79;20319;-71
2022/01/07 07:29:11;;;;;;;8.00;3.38;;;;;;;0.79;92.60;99364.63;2027855;79;20922;-70
2022/01/07 07:32:16;;;;;;;7.35;3.16;;;;;;;0.83;92.91;99369.03;2025822;77;22213;-70
2022/01/07 07:38:21;;;;;;;5.38;2.88;;;;;;;0.87;93.05;99370.00;2028635;79;20934;-72
2022/01/07 07:41:23;;;;;;;4.41;2.78;;;;;;;0.88;92.90;99376.84;2028497;79;20348;-72
2022/01/07 07:44:26;;;;;;;7.51;2.89;;;;;;;0.88;92.89;99379.41;2028657;79;20402;-72
2022/01/07 07:47:29;;;;;;;6.32;3.36;;;;;;;0.86;92.81;99389.56;2026743;77;21590;-71
2022/01/07 07:50:32;;;;;;;5.07;3.26;;;;;;;0.85;92.87;99389.53;2028367;79;20355;-72
2022/01/07 07:53:34;;;;;;;5.99;2.45;;;;;;;0.86;92.94;99387.00;2028631;79;20812;-72
2022/01/07 07:56:37;;;;;;;6.68;2.69;;;;;;;0.87;93.08;99375.09;2028725;79;20361;-71
2022/01/07 07:59:40;;;;;;;6.90;2.91;;;;;;;0.88;93.00;99380.28;2032091;79;20891;-71
2022/01/07 08:02:42;;;;;;;8.88;3.67;;;;;;;0.89;93.11;99374.34;2025639;77;23144;-71
2022/01/07 08:05:45;;;;;;;4.28;2.74;;;;;;;0.88;93.08;99380.28;2029762;79;21248;-71
2022/01/07 08:08:48;;;;;;;5.60;2.72;;;;;;;0.87;93.27;99370.88;2026381;79;20343;-71
2022/01/07 08:11:53;;;;;;;9.18;3.25;;;;;;;0.87;93.21;99367.44;2026998;79;20319;-72
2022/01/07 08:18:20;;;;;;;4.76;2.92;;;;;;;0.87;93.39;99365.75;2027370;79;20347;-72
2022/01/07 08:21:26;;;;;;;6.03;3.27;;;;;;;0.86;93.38;99358.03;2026577;79;20326;-72
2022/01/07 08:24:29;;;;;;;5.67;2.82;;;;;;;0.87;93.50;99360.63;2026406;79;20178;-72
2022/01/07 08:27:32;;;;;;;5.71;3.06;;;;;;;0.92;93.62;99360.81;2029732;79;20166;-72
2022/01/07 08:30:38;;;;;;;6.32;3.30;;;;;;;0.93;93.57;99357.44;2026608;77;22542;-74
2022/01/07 08:37:02;;;;;;;7.93;2.79;;;;;;;0.95;93.44;99353.25;2032509;79;20354;-73
2022/01/07 08:40:05;;;;;;;6.65;3.24;;;;;;;0.95;93.42;99347.25;2032083;79;21254;-71
2022/01/07 08:43:08;;;;;;;7.40;3.04;;;;;;;0.99;93.59;99349.09;2034443;79;20369;-71
2022/01/07 08:46:11;;;;;;;4.06;3.01;;;;;;;0.99;93.41;99349.97;2027190;76;20993;-72
2022/01/07 08:49:14;;;;;;;3.55;2.65;;;;;;;1.01;93.39;99348.31;2027117;79;20343;-74
2022/01/07 08:52:17;;;;;;;3.96;2.78;;;;;;;1.05;93.53;99346.72;2026142;79;20411;-72
2022/01/07 08:55:20;;;;;;;5.84;2.95;;;;;;;1.02;93.41;99355.16;2025771;79;20830;-72
2022/01/07 08:58:22;;;;;;;4.22;2.42;;;;;;;1.05;93.39;99352.72;2027033;79;20405;-72
2022/01/07 09:01:28;;;;;;;5.78;2.72;;;;;;;1.01;93.25;99348.31;2025346;77;22888;-71
2022/01/07 09:04:31;;;;;;;6.55;3.16;;;;;;;1.02;93.48;99352.63;2026509;79;20391;-71
2022/01/07 09:07:34;;;;;;;5.30;3.14;;;;;;;1.03;93.40;99343.25;2026597;79;20366;-72
2022/01/07 09:10:37;;;;;;;3.83;2.59;;;;;;;1.05;93.46;99339.94;2026648;79;21378;-72
2022/01/07 09:13:39;;;;;;;5.96;2.38;;;;;;;1.08;93.41;99340.06;2026313;79;21252;-72
2022/01/07 09:16:42;;;;;;;6.59;2.91;;;;;;;1.10;93.32;99338.41;2024140;79;22611;-72
2022/01/07 09:19:45;;;;;;;4.11;2.75;;;;;;;1.16;93.33;99332.63;2026172;79;20332;-72
2022/01/07 09:22:49;;;;;;;4.47;2.49;;;;;;;1.21;93.38;99342.16;2026945;79;20362;-72
2022/01/07 09:25:51;;;;;;;4.03;2.39;;;;;;;1.20;93.04;99342.13;2026855;79;20371;-72
2022/01/07 09:28:54;;;;;;;3.67;2.33;;;;;;;1.26;93.27;99334.66;2026279;79;20342;-72
2022/01/07 09:31:56;;;;;;;5.66;2.70;;;;;;;1.31;93.07;99330.53;2024536;77;21054;-72
2022/01/07 09:34:59;;;;;;;3.00;2.17;;;;;;;1.37;93.08;99332.41;2025978;79;20338;-72
2022/01/07 09:38:04;;;;;;;2.79;1.98;;;;;;;1.38;92.72;99331.59;2026201;79;20734;-72
2022/01/07 09:41:07;;;;;;;6.19;2.30;;;;;;;1.42;92.72;99336.84;2026327;79;20842;-72
2022/01/07 09:44:11;;;;;;;4.14;2.22;;;;;;;1.42;92.52;99336.84;2026201;79;20358;-72
2022/01/07 09:47:13;;;;;;;6.57;2.31;;;;;;;1.46;92.55;99328.47;2024676;79;20909;-72
2022/01/07 09:50:16;;;;;;;3.88;2.20;;;;;;;1.52;92.67;99327.78;2026944;79;20446;-72
2022/01/07 09:53:19;;;;;;;5.26;2.25;;;;;;;1.50;92.38;99330.28;2025080;80;21154;-72
2022/01/07 09:56:23;;;;;;;4.04;2.45;;;;;;;1.53;92.54;99324.38;2026161;80;20327;-72
2022/01/07 09:59:25;;;;;;;4.80;2.44;;;;;;;1.51;92.32;99332.03;2026047;80;20350;-72
2022/01/07 10:02:28;;;;;;;4.40;1.80;;;;;;;1.50;92.43;99330.28;2024697;77;20844;-71
2022/01/07 10:05:31;;;;;;;3.86;2.41;;;;;;;1.47;92.43;99332.75;2025460;80;20473;-72
2022/01/07 10:08:34;;;;;;;4.66;2.17;;;;;;;1.44;92.47;99331.81;2025666;80;20330;-72
2022/01/07 10:11:37;;;;;;;3.63;1.56;;;;;;;1.44;92.69;99321.56;2025990;80;20395;-72
2022/01/07 10:14:40;;;;;;;2.45;1.84;;;;;;;1.48;93.00;99321.69;2026135;80;20380;-72
2022/01/07 10:18:07;;;;;;;3.79;1.80;;;;;;;1.54;93.05;99321.00;2025902;77;20427;-72
2022/01/07 10:21:10;;;;;;;5.84;1.79;;;;;;;1.57;93.00;99315.97;2025687;80;21017;-72
2022/01/07 10:24:13;;;;;;;2.10;1.94;;;;;;;1.65;93.23;99314.53;2025494;80;20346;-71
2022/01/07 10:27:15;;;;;;;4.38;1.38;;;;;;;1.69;92.97;99318.03;2024749;80;20817;-71
2022/01/07 10:30:25;;;;;;;2.45;1.65;;;;;;;1.69;92.93;99305.25;2024400;77;20800;-71
2022/01/07 10:33:36;;;;;;;2.22;1.61;;;;;;;1.67;92.82;99302.66;2026048;80;20303;-71
2022/01/07 10:36:39;;;;;;;1.89;1.41;;;;;;;1.60;92.73;99293.03;2025031;79;21076;-71
2022/01/07 10:39:42;;;;;;;2.61;1.65;;;;;;;1.56;93.00;99291.22;2024707;80;20455;-70
2022/01/07 10:42:44;;;;;;;2.83;1.33;;;;;;;1.63;93.36;99293.16;2024046;79;20338;-70
2022/01/07 10:45:54;;;;;;;3.09;1.45;;;;;;;1.65;93.16;99301.75;2023690;77;21347;-71
2022/01/07 10:48:59;;;;;;;3.92;1.36;;;;;;;1.70;93.30;99294.19;2024561;80;20418;-71
2022/01/07 10:52:21;;;;;;;2.81;1.36;;;;;;;1.76;93.38;99289.22;2025361;79;20352;-72
2022/01/07 10:55:24;;;;;;;2.38;1.21;;;;;;;1.78;93.22;99282.47;2024252;80;20358;-71
2022/01/07 10:58:27;;;;;;;1.88;1.20;;;;;;;1.81;93.19;99280.03;2024382;80;20457;-72
2022/01/07 11:01:51;;;;;;;1.46;1.00;;;;;;;1.83;92.96;99274.94;2023282;77;20347;-72
2022/01/07 11:04:54;;;;;;;3.24;1.27;;;;;;;1.81;92.92;99269.78;2025547;80;20303;-72
2022/01/07 11:07:59;;;;;;;2.13;1.10;;;;;;;1.82;92.96;99263.84;2025109;79;20306;-72
2022/01/07 11:11:03;;;;;;;3.46;1.61;;;;;;;1.85;93.09;99255.38;2026901;79;20356;-72
2022/01/07 11:14:07;;;;;;;1.77;1.00;;;;;;;1.86;92.87;99260.53;2027152;79;20373;-72
2022/01/07 11:17:12;;;;;;;2.14;1.41;;;;;;;1.89;93.08;99264.84;2024641;77;21029;-72
2022/01/07 11:20:20;;;;;;;2.10;1.40;;;;;;;1.90;93.10;99264.03;2026932;79;20482;-72
2022/01/07 11:23:33;;;;;;;1.96;0.96;;;;;;;1.94;93.19;99261.59;2026404;79;20355;-72
2022/01/07 11:27:03;;;;;;;1.14;0.95;;;;;;;1.92;93.07;99257.25;2026994;79;20202;-72
2022/01/07 11:30:06;;;;;;;4.22;1.30;;;;;;;1.97;93.21;99250.56;2026083;79;20306;-72
2022/01/07 11:33:18;;;;;;;2.91;1.10;;;;;;;1.99;93.08;99239.56;2025752;77;21392;-72
2022/01/07 11:36:34;;;;;;;3.59;1.14;;;;;;;2.00;93.15;99246.41;2025734;79;20465;-71
2022/01/07 11:39:40;;;;;;;1.63;1.29;;;;;;;1.91;92.98;99253.84;2024023;79;20894;-71
2022/01/07 11:42:45;;;;;;;4.70;1.46;;;;;;;1.94;93.18;99250.50;2025322;79;20451;-71
2022/01/07 11:45:48;;;;;;;1.94;1.00;;;;;;;1.94;93.34;99250.50;2024876;77;22178;-71
2022/01/07 11:48:53;;;;;;;2.34;1.17;;;;;;;1.91;93.41;99247.84;2029039;79;20326;-71
2022/01/07 11:51:56;;;;;;;2.58;1.30;;;;;;;1.92;93.57;99247.03;2029585;79;20454;-71
2022/01/07 11:55:24;;;;;;;3.58;1.63;;;;;;;1.97;93.79;99241.19;2030776;79;20401;-73
2022/01/07 11:58:44;;;;;;;2.10;1.06;;;;;;;2.01;93.67;99235.34;2031309;79;20487;-71
2022/01/07 12:02:01;;;;;;;2.59;1.50;;;;;;;2.08;93.93;99232.13;2026314;77;20899;-71
2022/01/07 12:05:33;;;;;;;3.61;1.24;;;;;;;2.16;93.99;99231.47;2024745;79;20949;-72
2022/01/07 12:08:40;;;;;;;3.14;1.38;;;;;;;2.19;93.73;99231.53;2024658;79;20241;-72
2022/01/07 12:11:45;;;;;;;2.89;1.10;;;;;;;2.19;93.62;99231.53;2025654;79;20331;-72
2022/01/07 12:14:51;;;;;;;2.70;1.51;;;;;;;2.19;93.53;99234.09;2026018;79;20521;-72
2022/01/07 12:18:07;;;;;;;2.70;1.15;;;;;;;2.22;93.59;99234.19;2023654;77;22161;-72
2022/01/07 12:21:11;;;;;;;2.74;1.20;;;;;;;2.23;93.46;99230.78;2025838;79;20315;-72
2022/01/07 12:24:16;;;;;;;3.88;1.85;;;;;;;2.26;93.48;99221.47;2025942;79;20462;-72
2022/01/07 12:27:22;;;;;;;2.79;1.30;;;;;;;2.27;93.46;99210.41;2024908;79;20307;-72
2022/01/07 12:30:26;;;;;;;3.63;1.36;;;;;;;2.26;93.47;99211.25;2023572;79;21556;-72
2022/01/07 12:33:29;;;;;;;3.50;1.30;;;;;;;2.27;93.63;99212.09;2025795;79;20323;-72
2022/01/07 12:36:34;;;;;;;4.69;1.40;;;;;;;2.22;93.60;99216.25;2025846;79;21038;-72
2022/01/07 12:39:39;;;;;;;2.41;1.41;;;;;;;2.24;93.98;99207.78;2026288;79;21195;-72
2022/01/07 12:42:45;;;;;;;5.39;1.54;;;;;;;2.26;94.01;99211.25;2025469;79;20367;-72
2022/01/07 12:45:58;;;;;;;3.36;1.17;;;;;;;2.28;93.97;99206.16;2025936;76;21628;-72
2022/01/07 12:49:01;;;;;;;2.76;1.25;;;;;;;2.31;94.07;99201.97;2031033;79;20306;-72
2022/01/07 12:52:07;;;;;;;4.29;1.88;;;;;;;2.35;94.10;99202.94;2031042;79;20317;-71
2022/01/07 12:55:16;;;;;;;2.59;1.56;;;;;;;2.29;94.11;99195.06;2030825;79;20306;-72
2022/01/07 12:58:27;;;;;;;4.34;1.27;;;;;;;2.32;94.35;99188.31;2030996;79;20336;-72
2022/01/07 13:01:31;;;;;;;1.95;1.38;;;;;;;2.37;94.51;99186.78;2028444;76;21175;-72
2022/01/07 13:04:34;;;;;;;3.22;1.27;;;;;;;2.37;94.28;99180.78;2030353;79;20335;-72
2022/01/07 13:07:42;;;;;;;4.81;1.54;;;;;;;2.40;94.30;99180.84;2030634;79;20418;-72
2022/01/07 13:10:48;;;;;;;1.73;1.14;;;;;;;2.45;94.37;99169.00;2030517;79;21209;-72
2022/01/07 13:14:07;;;;;;;2.58;1.35;;;;;;;2.51;94.19;99178.53;2029880;79;20302;-72
2022/01/07 13:17:12;;;;;;;2.61;1.10;;;;;;;2.53;94.18;99185.44;2028989;77;21781;-72
2022/01/07 13:20:28;;;;;;;1.64;1.05;;;;;;;2.52;94.20;99173.47;2030296;79;20321;-72
2022/01/07 13:23:40;;;;;;;2.13;1.10;;;;;;;2.53;94.07;99174.34;2030553;79;20310;-72
2022/01/07 13:26:45;;;;;;;2.13;1.00;;;;;;;2.57;94.18;99181.25;2030190;79;20346;-72
2022/01/07 13:29:48;;;;;;;3.26;1.30;;;;;;;2.56;94.24;99177.84;2030531;79;20358;-72
2022/01/07 13:33:08;;;;;;;1.51;1.11;;;;;;;2.52;93.93;99176.03;2025269;79;20306;-72
2022/01/07 13:36:35;;;;;;;3.44;1.10;;;;;;;2.51;93.92;99170.84;2026093;79;20379;-72
2022/01/07 13:39:41;;;;;;;2.79;1.20;;;;;;;2.51;93.98;99158.91;2025772;79;20352;-72
2022/01/07 13:42:44;;;;;;;1.54;0.94;;;;;;;2.51;93.94;99155.47;2025522;79;20399;-72
2022/01/07 13:45:47;;;;;;;5.96;1.39;;;;;;;2.52;93.96;99162.34;2025871;79;20330;-72
2022/01/07 13:49:09;;;;;;;1.94;1.36;;;;;;;2.46;94.11;99155.38;2025700;79;20331;-71
2022/01/07 13:52:11;;;;;;;2.79;1.17;;;;;;;2.47;94.28;99154.53;2023644;80;20364;-71
2022/01/07 13:55:25;;;;;;;1.56;1.16;;;;;;;2.49;94.43;99152.00;2024171;80;20720;-71
2022/01/07 13:58:29;;;;;;;3.66;1.36;;;;;;;2.50;94.33;99141.78;2024279;80;21365;-71
2022/01/07 14:01:31;;;;;;;2.61;1.40;;;;;;;2.48;94.33;99146.00;2024195;79;20938;-71
2022/01/07 14:04:44;;;;;;;3.08;1.55;;;;;;;2.42;94.30;99153.56;2023617;80;20394;-71
2022/01/07 14:07:51;;;;;;;4.61;1.46;;;;;;;2.43;94.59;99150.16;2024881;79;20330;-71
2022/01/07 14:10:53;;;;;;;2.58;1.25;;;;;;;2.41;94.50;99157.81;2024400;80;20836;-71
2022/01/07 14:14:15;;;;;;;2.67;1.60;;;;;;;2.39;94.63;99159.50;2024477;79;21101;-71
2022/01/07 14:17:39;;;;;;;2.89;1.38;;;;;;;2.35;94.62;99162.81;2024231;80;21374;-71
2022/01/07 14:20:49;;;;;;;2.94;1.96;;;;;;;2.31;94.93;99160.13;2024279;80;20890;-71
2022/01/07 14:23:54;;;;;;;2.95;1.59;;;;;;;2.29;95.10;99164.34;2023623;79;20344;-72
2022/01/07 14:26:57;;;;;;;1.76;1.40;;;;;;;2.27;95.24;99161.75;2024863;79;20995;-72
2022/01/07 14:30:00;;;;;;;1.54;1.27;;;;;;;2.30;95.43;99161.81;2025349;80;20447;-72
2022/01/07 14:33:03;;;;;;;1.54;1.44;;;;;;;2.34;95.35;99170.47;2024487;80;20507;-72
2022/01/07 14:36:06;;;;;;;2.72;1.31;;;;;;;2.37;95.29;99167.97;2025112;79;20311;-72
2022/01/07 14:39:09;;;;;;;1.45;1.26;;;;;;;2.38;95.26;99159.44;2024331;79;20368;-72
2022/01/07 14:42:11;;;;;;;3.20;1.42;;;;;;;2.35;95.02;99157.69;2024971;80;20923;-72
2022/01/07 14:45:14;;;;;;;2.31;1.46;;;;;;;2.37;95.17;99165.41;2024683;79;20306;-72